sensor_id;sensor_type;location;lat;lon;timestamp;pressure;altitude;pressure_sealevel;temperature;humidity
50484;BME280;36409;52.168;20.878;2023-03-19T00:02:14;100660.41;;;4.70;49.07
50484;BME280;36409;52.168;20.878;2023-03-19T00:04:46;100659.50;;;4.68;49.51
50484;BME280;36409;52.168;20.878;2023-03-19T00:07:15;100658.61;;;4.66;50.12
50484;BME280;36409;52.168;20.878;2023-03-19T00:09:48;100657.70;;;4.64;49.42
50484;BME280;36409;52.168;20.878;2023-03-19T00:12:19;100661.13;;;4.61;50.03
50484;BME280;36409;52.168;20.878;2023-03-19T00:14:49;100657.69;;;4.61;49.95
50484;BME280;36409;52.168;20.878;2023-03-19T00:17:19;100656.78;;;4.59;49.98
50484;BME280;36409;52.168;20.878;2023-03-19T00:19:48;100649.88;;;4.58;49.92
50484;BME280;36409;52.168;20.878;2023-03-19T00:22:17;100650.66;;;4.54;49.33
50484;BME280;36409;52.168;20.878;2023-03-19T00:24:46;100645.48;;;4.52;50.03
50484;BME280;36409;52.168;20.878;2023-03-19T00:27:16;100643.73;;;4.50;49.49
50484;BME280;36409;52.168;20.878;2023-03-19T00:29:46;100641.09;;;4.48;49.86
50484;BME280;36409;52.168;20.878;2023-03-19T00:32:16;100646.21;;;4.45;49.95
50484;BME280;36409;52.168;20.878;2023-03-19T00:34:45;100653.05;;;4.41;50.35
50484;BME280;36409;52.168;20.878;2023-03-19T00:37:15;100653.89;;;4.39;50.52
50484;BME280;36409;52.168;20.878;2023-03-19T00:39:44;100646.92;;;4.35;49.82
50484;BME280;36409;52.168;20.878;2023-03-19T00:42:16;100647.75;;;4.32;50.44
50484;BME280;36409;52.168;20.878;2023-03-19T00:44:45;100651.12;;;4.28;50.50
50484;BME280;36409;52.168;20.878;2023-03-19T00:47:14;100649.36;;;4.25;50.46
50484;BME280;36409;52.168;20.878;2023-03-19T00:49:43;100638.95;;;4.21;49.88
50484;BME280;36409;52.168;20.878;2023-03-19T00:52:18;100638.89;;;4.17;50.01
50484;BME280;36409;52.168;20.878;2023-03-19T00:54:47;100640.61;;;4.15;50.40
50484;BME280;36409;52.168;20.878;2023-03-19T00:57:18;100643.97;;;4.11;50.28
50484;BME280;36409;52.168;20.878;2023-03-19T00:59:48;100643.91;;;4.08;51.01
50484;BME280;36409;52.168;20.878;2023-03-19T01:02:21;100647.33;;;4.06;51.13
50484;BME280;36409;52.168;20.878;2023-03-19T01:04:51;100639.50;;;4.01;50.82
50484;BME280;36409;52.168;20.878;2023-03-19T01:07:24;100642.02;;;3.98;50.81
50484;BME280;36409;52.168;20.878;2023-03-19T01:09:52;100643.69;;;3.94;50.95
50484;BME280;36409;52.168;20.878;2023-03-19T01:12:21;100645.35;;;3.91;50.82
50484;BME280;36409;52.168;20.878;2023-03-19T01:14:50;100643.59;;;3.88;51.32
50484;BME280;36409;52.168;20.878;2023-03-19T01:17:19;100641.80;;;3.85;51.44
50484;BME280;36409;52.168;20.878;2023-03-19T01:19:49;100641.77;;;3.82;50.64
50484;BME280;36409;52.168;20.878;2023-03-19T01:22:19;100652.06;;;3.81;51.07
50484;BME280;36409;52.168;20.878;2023-03-19T01:24:53;100646.87;;;3.79;51.58
50484;BME280;36409;52.168;20.878;2023-03-19T01:27:24;100651.99;;;3.78;50.91
50484;BME280;36409;52.168;20.878;2023-03-19T01:29:53;100659.72;;;3.76;50.84
50484;BME280;36409;52.168;20.878;2023-03-19T01:32:41;100656.23;;;3.74;50.84
50484;BME280;36409;52.168;20.878;2023-03-19T01:35:30;100661.38;;;3.73;51.49
50484;BME280;36409;52.168;20.878;2023-03-19T01:37:59;100662.22;;;3.71;51.78
50484;BME280;36409;52.168;20.878;2023-03-19T01:40:29;100663.06;;;3.70;51.61
50484;BME280;36409;52.168;20.878;2023-03-19T01:43:13;100661.30;;;3.68;51.03
50484;BME280;36409;52.168;20.878;2023-03-19T01:46:07;100656.96;;;3.65;51.68
50484;BME280;36409;52.168;20.878;2023-03-19T01:48:51;100651.75;;;3.64;51.78
50484;BME280;36409;52.168;20.878;2023-03-19T01:51:24;100652.56;;;3.61;51.51
50484;BME280;36409;52.168;20.878;2023-03-19T01:54:06;100649.08;;;3.59;51.94
50484;BME280;36409;52.168;20.878;2023-03-19T01:56:45;100657.66;;;3.58;51.35
50484;BME280;36409;52.168;20.878;2023-03-19T01:59:47;100655.91;;;3.55;52.25
50484;BME280;36409;52.168;20.878;2023-03-19T02:02:39;100655.00;;;3.53;51.86
50484;BME280;36409;52.168;20.878;2023-03-19T02:05:40;100650.66;;;3.51;51.49
50484;BME280;36409;52.168;20.878;2023-03-19T02:08:16;100659.23;;;3.50;51.91
50484;BME280;36409;52.168;20.878;2023-03-19T02:10:47;100654.05;;;3.48;52.08
50484;BME280;36409;52.168;20.878;2023-03-19T02:13:16;100657.47;;;3.47;52.42
50484;BME280;36409;52.168;20.878;2023-03-19T02:15:46;100653.98;;;3.45;52.20
50484;BME280;36409;52.168;20.878;2023-03-19T02:18:16;100646.24;;;3.45;51.69
50484;BME280;36409;52.168;20.878;2023-03-19T02:20:50;100644.50;;;3.44;52.07
50484;BME280;36409;52.168;20.878;2023-03-19T02:23:29;100640.16;;;3.42;51.76
50484;BME280;36409;52.168;20.878;2023-03-19T02:26:08;100638.43;;;3.42;51.86
50484;BME280;36409;52.168;20.878;2023-03-19T02:28:42;100635.83;;;3.40;51.88
50484;BME280;36409;52.168;20.878;2023-03-19T02:31:18;100634.92;;;3.38;52.28
50484;BME280;36409;52.168;20.878;2023-03-19T02:33:58;100641.78;;;3.38;52.51
50484;BME280;36409;52.168;20.878;2023-03-19T02:36:30;100644.34;;;3.36;52.71
50484;BME280;36409;52.168;20.878;2023-03-19T02:39:04;100647.77;;;3.35;52.06
50484;BME280;36409;52.168;20.878;2023-03-19T02:41:40;100652.91;;;3.34;52.53
50484;BME280;36409;52.168;20.878;2023-03-19T02:44:11;100651.14;;;3.31;53.00
50484;BME280;36409;52.168;20.878;2023-03-19T02:46:41;100658.00;;;3.31;52.70
50484;BME280;36409;52.168;20.878;2023-03-19T02:49:12;100655.39;;;3.29;52.31
50484;BME280;36409;52.168;20.878;2023-03-19T02:51:41;100654.48;;;3.27;52.68
50484;BME280;36409;52.168;20.878;2023-03-19T02:54:11;100650.14;;;3.24;52.29
50484;BME280;36409;52.168;20.878;2023-03-19T02:56:40;100660.41;;;3.23;52.36
50484;BME280;36409;52.168;20.878;2023-03-19T02:59:10;100656.91;;;3.19;53.06
50484;BME280;36409;52.168;20.878;2023-03-19T03:01:39;100658.58;;;3.17;52.58
50484;BME280;36409;52.168;20.878;2023-03-19T03:04:13;100663.70;;;3.14;53.25
50484;BME280;36409;52.168;20.878;2023-03-19T03:06:45;100663.64;;;3.13;52.69
50484;BME280;36409;52.168;20.878;2023-03-19T03:09:15;100665.30;;;3.09;52.68
50484;BME280;36409;52.168;20.878;2023-03-19T03:11:45;100663.53;;;3.06;52.60
50484;BME280;36409;52.168;20.878;2023-03-19T03:14:14;100662.59;;;3.03;52.90
50484;BME280;36409;52.168;20.878;2023-03-19T03:16:43;100660.86;;;3.02;52.87
50484;BME280;36409;52.168;20.878;2023-03-19T03:19:12;100660.78;;;2.99;52.83
50484;BME280;36409;52.168;20.878;2023-03-19T03:21:42;100662.45;;;2.97;52.91
50484;BME280;36409;52.168;20.878;2023-03-19T03:24:12;100660.70;;;2.96;53.78
50484;BME280;36409;52.168;20.878;2023-03-19T03:26:42;100658.08;;;2.92;53.90
50484;BME280;36409;52.168;20.878;2023-03-19T03:29:11;100652.88;;;2.91;53.01
50484;BME280;36409;52.168;20.878;2023-03-19T03:31:42;100656.28;;;2.90;53.55
50484;BME280;36409;52.168;20.878;2023-03-19T03:34:11;100651.96;;;2.89;54.01
50484;BME280;36409;52.168;20.878;2023-03-19T03:36:41;100651.94;;;2.87;53.94
50484;BME280;36409;52.168;20.878;2023-03-19T03:39:10;100647.61;;;2.86;53.52
50484;BME280;36409;52.168;20.878;2023-03-19T03:41:43;100654.44;;;2.84;54.02
50484;BME280;36409;52.168;20.878;2023-03-19T03:44:15;100653.53;;;2.82;53.49
50484;BME280;36409;52.168;20.878;2023-03-19T03:46:45;100651.82;;;2.81;53.27
50484;BME280;36409;52.168;20.878;2023-03-19T03:49:15;100644.86;;;2.78;53.34
50484;BME280;36409;52.168;20.878;2023-03-19T03:51:44;100651.66;;;2.75;53.61
50484;BME280;36409;52.168;20.878;2023-03-19T03:54:13;100654.22;;;2.73;54.34
50484;BME280;36409;52.168;20.878;2023-03-19T03:56:43;100653.31;;;2.71;53.51
50484;BME280;36409;52.168;20.878;2023-03-19T03:59:12;100653.23;;;2.68;53.47
50484;BME280;36409;52.168;20.878;2023-03-19T04:01:42;100649.72;;;2.65;53.91
50484;BME280;36409;52.168;20.878;2023-03-19T04:04:11;100648.73;;;2.59;54.56
50484;BME280;36409;52.168;20.878;2023-03-19T04:06:40;100642.61;;;2.54;54.39
50484;BME280;36409;52.168;20.878;2023-03-19T04:09:24;100651.16;;;2.52;53.77
50484;BME280;36409;52.168;20.878;2023-03-19T04:11:58;100644.20;;;2.49;53.64
50484;BME280;36409;52.168;20.878;2023-03-19T04:14:27;100639.00;;;2.46;54.23
50484;BME280;36409;52.168;20.878;2023-03-19T04:16:59;100640.69;;;2.45;54.65
50484;BME280;36409;52.168;20.878;2023-03-19T04:19:29;100638.92;;;2.43;54.72
50484;BME280;36409;52.168;20.878;2023-03-19T04:21:59;100641.47;;;2.41;54.29
50484;BME280;36409;52.168;20.878;2023-03-19T04:24:30;100640.58;;;2.41;54.11
50484;BME280;36409;52.168;20.878;2023-03-19T04:27:01;100638.00;;;2.41;54.20
50484;BME280;36409;52.168;20.878;2023-03-19T04:29:30;100637.09;;;2.39;54.73
50484;BME280;36409;52.168;20.878;2023-03-19T04:32:00;100645.71;;;2.39;54.73
50484;BME280;36409;52.168;20.878;2023-03-19T04:34:29;100639.64;;;2.37;55.05
50484;BME280;36409;52.168;20.878;2023-03-19T04:36:59;100649.92;;;2.36;54.26
50484;BME280;36409;52.168;20.878;2023-03-19T04:39:30;100643.80;;;2.32;55.16
50484;BME280;36409;52.168;20.878;2023-03-19T04:42:02;100643.78;;;2.30;54.57
50484;BME280;36409;52.168;20.878;2023-03-19T04:44:42;100637.71;;;2.28;55.22
50484;BME280;36409;52.168;20.878;2023-03-19T04:47:15;100636.80;;;2.26;55.29
50484;BME280;36409;52.168;20.878;2023-03-19T04:49:51;100643.64;;;2.24;55.30
50484;BME280;36409;52.168;20.878;2023-03-19T04:52:22;100641.90;;;2.23;54.71
50484;BME280;36409;52.168;20.878;2023-03-19T04:54:53;100646.16;;;2.23;55.06
50484;BME280;36409;52.168;20.878;2023-03-19T04:57:27;100644.42;;;2.22;54.66
50484;BME280;36409;52.168;20.878;2023-03-19T04:59:59;100639.24;;;2.20;55.17
50484;BME280;36409;52.168;20.878;2023-03-19T05:02:29;100652.95;;;2.19;54.54
50484;BME280;36409;52.168;20.878;2023-03-19T05:04:59;100653.78;;;2.18;54.51
50484;BME280;36409;52.168;20.878;2023-03-19T05:07:31;100655.50;;;2.18;55.11
50484;BME280;36409;52.168;20.878;2023-03-19T05:10:02;100648.62;;;2.18;55.63
50484;BME280;36409;52.168;20.878;2023-03-19T05:12:32;100653.78;;;2.18;55.62
50484;BME280;36409;52.168;20.878;2023-03-19T05:15:02;100653.75;;;2.16;55.22
50484;BME280;36409;52.168;20.878;2023-03-19T05:17:38;100670.06;;;2.17;54.68
50484;BME280;36409;52.168;20.878;2023-03-19T05:20:14;100670.87;;;2.14;55.31
50484;BME280;36409;52.168;20.878;2023-03-19T05:22:49;100665.69;;;2.13;54.89
50484;BME280;36409;52.168;20.878;2023-03-19T05:25:20;100665.72;;;2.14;55.80
50484;BME280;36409;52.168;20.878;2023-03-19T05:27:50;100661.48;;;2.16;54.91
50484;BME280;36409;52.168;20.878;2023-03-19T05:30:24;100667.58;;;2.20;55.70
50484;BME280;36409;52.168;20.878;2023-03-19T05:33:03;100667.69;;;2.25;55.09
50484;BME280;36409;52.168;20.878;2023-03-19T05:35:38;100662.64;;;2.29;55.27
50484;BME280;36409;52.168;20.878;2023-03-19T05:38:14;100667.96;;;2.36;55.85
50484;BME280;36409;52.168;20.878;2023-03-19T05:40:44;100669.84;;;2.43;56.00
50484;BME280;36409;52.168;20.878;2023-03-19T05:43:23;100666.56;;;2.50;55.50
50484;BME280;36409;52.168;20.878;2023-03-19T05:45:53;100659.04;;;2.59;55.98
50484;BME280;36409;52.168;20.878;2023-03-19T05:48:26;100658.39;;;2.68;55.50
50484;BME280;36409;52.168;20.878;2023-03-19T05:50:55;100657.81;;;2.80;55.61
50484;BME280;36409;52.168;20.878;2023-03-19T05:53:28;100655.50;;;2.92;55.53
50484;BME280;36409;52.168;20.878;2023-03-19T05:56:19;100651.48;;;3.07;55.33
50484;BME280;36409;52.168;20.878;2023-03-19T05:59:00;100651.81;;;3.22;55.90
50484;BME280;36409;52.168;20.878;2023-03-19T06:01:37;100658.17;;;3.40;55.82
50484;BME280;36409;52.168;20.878;2023-03-19T06:04:06;100653.39;;;3.59;55.42
50484;BME280;36409;52.168;20.878;2023-03-19T06:06:36;100654.03;;;3.96;55.71
50484;BME280;36409;52.168;20.878;2023-03-19T06:09:05;100650.80;;;4.63;55.78
50484;BME280;36409;52.168;20.878;2023-03-19T06:11:37;100652.69;;;5.41;55.15
50484;BME280;36409;52.168;20.878;2023-03-19T06:14:35;100643.71;;;7.16;54.45
50484;BME280;36409;52.168;20.878;2023-03-19T06:17:39;100649.12;;;8.28;53.78
50484;BME280;36409;52.168;20.878;2023-03-19T06:20:12;100641.34;;;8.26;53.30
50484;BME280;36409;52.168;20.878;2023-03-19T06:22:42;100650.86;;;8.16;53.16
50484;BME280;36409;52.168;20.878;2023-03-19T06:25:11;100651.72;;;8.32;53.20
50484;BME280;36409;52.168;20.878;2023-03-19T06:27:42;100652.53;;;8.93;52.73
50484;BME280;36409;52.168;20.878;2023-03-19T06:30:22;100648.55;;;9.92;52.00
50484;BME280;36409;52.168;20.878;2023-03-19T06:32:51;100637.63;;;11.32;51.86
50484;BME280;36409;52.168;20.878;2023-03-19T06:35:21;100640.99;;;13.03;50.07
50484;BME280;36409;52.168;20.878;2023-03-19T06:37:50;100647.16;;;13.84;49.58
50484;BME280;36409;52.168;20.878;2023-03-19T06:40:20;100646.29;;;14.54;49.58
50484;BME280;36409;52.168;20.878;2023-03-19T06:42:49;100643.45;;;15.56;48.63
50484;BME280;36409;52.168;20.878;2023-03-19T06:45:20;100648.77;;;16.12;47.91
50484;BME280;36409;52.168;20.878;2023-03-19T06:47:50;100650.77;;;16.57;47.86
50484;BME280;36409;52.168;20.878;2023-03-19T06:50:21;100649.77;;;16.85;47.71
50484;BME280;36409;52.168;20.878;2023-03-19T06:52:50;100649.66;;;17.13;46.90
50484;BME280;36409;52.168;20.878;2023-03-19T06:55:19;100645.75;;;16.75;46.60
50484;BME280;36409;52.168;20.878;2023-03-19T06:57:49;100652.23;;;16.66;46.17
50484;BME280;36409;52.168;20.878;2023-03-19T07:00:20;100652.33;;;16.63;45.41
50484;BME280;36409;52.168;20.878;2023-03-19T07:02:49;100653.22;;;16.10;45.61
50484;BME280;36409;52.168;20.878;2023-03-19T07:05:23;100662.50;;;15.35;45.57
50484;BME280;36409;52.168;20.878;2023-03-19T07:07:57;100663.52;;;14.66;45.48
50484;BME280;36409;52.168;20.878;2023-03-19T07:10:26;100664.41;;;13.94;45.81
50484;BME280;36409;52.168;20.878;2023-03-19T07:12:56;100661.32;;;13.34;45.85
50484;BME280;36409;52.168;20.878;2023-03-19T07:15:24;100666.54;;;12.92;46.10
50484;BME280;36409;52.168;20.878;2023-03-19T07:17:56;100667.97;;;12.61;46.39
50484;BME280;36409;52.168;20.878;2023-03-19T07:20:28;100664.98;;;12.81;45.04
50484;BME280;36409;52.168;20.878;2023-03-19T07:22:59;100669.19;;;13.34;45.36
50484;BME280;36409;52.168;20.878;2023-03-19T07:25:28;100660.69;;;14.03;44.76
50484;BME280;36409;52.168;20.878;2023-03-19T07:28:00;100661.52;;;14.76;44.55
50484;BME280;36409;52.168;20.878;2023-03-19T07:30:29;100662.52;;;15.03;44.05
50484;BME280;36409;52.168;20.878;2023-03-19T07:32:58;100660.64;;;15.38;43.91
50484;BME280;36409;52.168;20.878;2023-03-19T07:35:28;100651.39;;;15.55;44.19
50484;BME280;36409;52.168;20.878;2023-03-19T07:37:57;100652.81;;;16.74;43.00
50484;BME280;36409;52.168;20.878;2023-03-19T07:40:27;100651.25;;;18.92;41.72
50484;BME280;36409;52.168;20.878;2023-03-19T07:42:56;100650.02;;;20.49;40.77
50484;BME280;36409;52.168;20.878;2023-03-19T07:45:25;100650.39;;;20.94;40.64
50484;BME280;36409;52.168;20.878;2023-03-19T07:47:58;100649.55;;;20.94;40.09
50484;BME280;36409;52.168;20.878;2023-03-19T07:50:30;100655.09;;;21.55;39.87
50484;BME280;36409;52.168;20.878;2023-03-19T07:53:02;100660.95;;;22.24;39.06
50484;BME280;36409;52.168;20.878;2023-03-19T07:55:31;100648.17;;;22.90;38.28
50484;BME280;36409;52.168;20.878;2023-03-19T07:58:01;100649.08;;;23.62;37.46
50484;BME280;36409;52.168;20.878;2023-03-19T08:00:30;100648.88;;;24.19;37.24
50484;BME280;36409;52.168;20.878;2023-03-19T08:03:03;100637.72;;;24.00;36.12
50484;BME280;36409;52.168;20.878;2023-03-19T08:05:31;100644.91;;;23.43;37.00
50484;BME280;36409;52.168;20.878;2023-03-19T08:08:01;100636.55;;;23.49;36.63
50484;BME280;36409;52.168;20.878;2023-03-19T08:10:30;100630.47;;;24.42;35.83
50484;BME280;36409;52.168;20.878;2023-03-19T08:13:05;100637.83;;;25.03;35.33
50484;BME280;36409;52.168;20.878;2023-03-19T08:15:34;100633.12;;;25.07;35.63
50484;BME280;36409;52.168;20.878;2023-03-19T08:18:04;100642.67;;;25.35;34.93
50484;BME280;36409;52.168;20.878;2023-03-19T08:20:34;100645.42;;;25.59;34.60
50484;BME280;36409;52.168;20.878;2023-03-19T08:23:05;100635.77;;;25.70;34.32
50484;BME280;36409;52.168;20.878;2023-03-19T08:25:37;100638.83;;;25.77;33.52
50484;BME280;36409;52.168;20.878;2023-03-19T08:28:08;100644.46;;;25.61;33.63
50484;BME280;36409;52.168;20.878;2023-03-19T08:30:38;100644.70;;;25.44;33.54
50484;BME280;36409;52.168;20.878;2023-03-19T08:33:07;100646.92;;;24.75;33.45
50484;BME280;36409;52.168;20.878;2023-03-19T08:35:43;100642.41;;;23.96;33.33
50484;BME280;36409;52.168;20.878;2023-03-19T08:38:16;100643.91;;;23.02;34.46
50484;BME280;36409;52.168;20.878;2023-03-19T08:40:45;100640.56;;;22.09;34.84
50484;BME280;36409;52.168;20.878;2023-03-19T08:43:20;100644.30;;;21.26;34.56
50484;BME280;36409;52.168;20.878;2023-03-19T08:45:49;100642.79;;;20.35;34.78
50484;BME280;36409;52.168;20.878;2023-03-19T08:48:22;100643.53;;;19.66;34.89
50484;BME280;36409;52.168;20.878;2023-03-19T08:50:53;100642.04;;;19.03;35.19
50484;BME280;36409;52.168;20.878;2023-03-19T08:53:23;100646.32;;;18.64;35.17
50484;BME280;36409;52.168;20.878;2023-03-19T08:55:58;100648.45;;;18.35;35.44
50484;BME280;36409;52.168;20.878;2023-03-19T08:58:28;100645.32;;;18.25;35.95
50484;BME280;36409;52.168;20.878;2023-03-19T09:01:02;100653.02;;;18.09;35.88
50484;BME280;36409;52.168;20.878;2023-03-19T09:03:30;100651.19;;;18.11;36.03
50484;BME280;36409;52.168;20.878;2023-03-19T09:06:01;100645.20;;;18.28;35.82
50484;BME280;36409;52.168;20.878;2023-03-19T09:12:01;100646.60;;;18.58;35.33
50484;BME280;36409;52.168;20.878;2023-03-19T09:14:52;100643.63;;;18.65;35.37
50484;BME280;36409;52.168;20.878;2023-03-19T09:17:26;100645.91;;;19.34;34.84
50484;BME280;36409;52.168;20.878;2023-03-19T09:20:00;100644.23;;;19.88;34.68
50484;BME280;36409;52.168;20.878;2023-03-19T09:22:45;100635.47;;;20.41;34.22
50484;BME280;36409;52.168;20.878;2023-03-19T09:25:17;100632.27;;;21.03;34.26
50484;BME280;36409;52.168;20.878;2023-03-19T09:27:48;100634.95;;;21.35;34.34
50484;BME280;36409;52.168;20.878;2023-03-19T09:30:18;100630.84;;;21.29;33.87
50484;BME280;36409;52.168;20.878;2023-03-19T09:32:49;100635.97;;;21.16;34.49
50484;BME280;36409;52.168;20.878;2023-03-19T09:35:18;100625.95;;;21.05;34.33
50484;BME280;36409;52.168;20.878;2023-03-19T09:37:48;100633.13;;;20.52;34.25
50484;BME280;36409;52.168;20.878;2023-03-19T09:40:23;100632.02;;;20.03;34.33
50484;BME280;36409;52.168;20.878;2023-03-19T09:43:02;100627.87;;;19.61;35.00
50484;BME280;36409;52.168;20.878;2023-03-19T09:45:35;100622.31;;;19.29;35.12
50484;BME280;36409;52.168;20.878;2023-03-19T09:48:11;100622.14;;;18.94;35.38
50484;BME280;36409;52.168;20.878;2023-03-19T09:50:42;100621.02;;;18.79;35.33
50484;BME280;36409;52.168;20.878;2023-03-19T09:53:16;100614.55;;;18.65;35.92
50484;BME280;36409;52.168;20.878;2023-03-19T09:55:51;100625.86;;;18.48;35.62
50484;BME280;36409;52.168;20.878;2023-03-19T09:58:24;100630.99;;;18.31;35.47
50484;BME280;36409;52.168;20.878;2023-03-19T10:00:56;100624.28;;;18.01;35.63
50484;BME280;36409;52.168;20.878;2023-03-19T10:03:42;100624.84;;;18.10;36.11
50484;BME280;36409;52.168;20.878;2023-03-19T10:06:25;100622.42;;;18.26;36.51
50484;BME280;36409;52.168;20.878;2023-03-19T10:09:25;100627.10;;;18.19;36.26
50484;BME280;36409;52.168;20.878;2023-03-19T10:12:18;100625.38;;;18.18;36.54
50484;BME280;36409;52.168;20.878;2023-03-19T10:15:03;100627.08;;;17.98;36.24
50484;BME280;36409;52.168;20.878;2023-03-19T10:17:41;100626.81;;;18.04;36.09
50484;BME280;36409;52.168;20.878;2023-03-19T10:20:18;100625.45;;;18.16;36.56
50484;BME280;36409;52.168;20.878;2023-03-19T10:22:56;100614.09;;;18.35;36.73
50484;BME280;36409;52.168;20.878;2023-03-19T10:25:37;100623.14;;;18.50;36.38
50484;BME280;36409;52.168;20.878;2023-03-19T10:28:14;100614.89;;;18.58;36.56
50484;BME280;36409;52.168;20.878;2023-03-19T10:30:49;100616.06;;;18.71;36.39
50484;BME280;36409;52.168;20.878;2023-03-19T10:33:23;100610.16;;;18.85;36.32
50484;BME280;36409;52.168;20.878;2023-03-19T10:35:58;100613.57;;;19.08;36.27
50484;BME280;36409;52.168;20.878;2023-03-19T10:38:30;100607.72;;;19.39;36.79
50484;BME280;36409;52.168;20.878;2023-03-19T10:41:19;100607.81;;;19.74;36.63
50484;BME280;36409;52.168;20.878;2023-03-19T10:43:53;100612.31;;;19.92;36.15
50484;BME280;36409;52.168;20.878;2023-03-19T10:46:23;100607.11;;;20.08;36.34
50484;BME280;36409;52.168;20.878;2023-03-19T10:48:52;100614.03;;;19.93;35.72
50484;BME280;36409;52.168;20.878;2023-03-19T10:51:23;100607.14;;;19.52;35.27
50484;BME280;36409;52.168;20.878;2023-03-19T10:53:55;100609.58;;;19.37;35.63
50484;BME280;36409;52.168;20.878;2023-03-19T10:56:32;100606.84;;;19.39;35.98
50484;BME280;36409;52.168;20.878;2023-03-19T10:59:04;100599.61;;;19.42;35.82
50484;BME280;36409;52.168;20.878;2023-03-19T11:01:35;100600.05;;;19.33;36.08
50484;BME280;36409;52.168;20.878;2023-03-19T11:04:13;100601.28;;;19.26;36.29
50484;BME280;36409;52.168;20.878;2023-03-19T11:06:49;100604.06;;;19.23;35.78
50484;BME280;36409;52.168;20.878;2023-03-19T11:09:35;100595.77;;;19.11;35.83
50484;BME280;36409;52.168;20.878;2023-03-19T11:12:17;100582.49;;;18.92;35.56
50484;BME280;36409;52.168;20.878;2023-03-19T11:14:49;100581.86;;;18.87;35.60
50484;BME280;36409;52.168;20.878;2023-03-19T11:17:23;100583.38;;;18.93;35.80
50484;BME280;36409;52.168;20.878;2023-03-19T11:19:56;100584.51;;;18.87;35.65
50484;BME280;36409;52.168;20.878;2023-03-19T11:22:28;100580.02;;;18.89;35.56
50484;BME280;36409;52.168;20.878;2023-03-19T11:25:02;100579.84;;;18.92;35.94
50484;BME280;36409;52.168;20.878;2023-03-19T11:27:41;100571.55;;;18.81;35.78
50484;BME280;36409;52.168;20.878;2023-03-19T11:30:16;100576.13;;;18.77;36.06
50484;BME280;36409;52.168;20.878;2023-03-19T11:35:52;100573.27;;;18.42;35.35
50484;BME280;36409;52.168;20.878;2023-03-19T11:38:33;100566.74;;;18.30;35.19
50484;BME280;36409;52.168;20.878;2023-03-19T11:41:13;100562.59;;;18.25;35.59
50484;BME280;36409;52.168;20.878;2023-03-19T11:43:52;100563.59;;;18.22;35.90
50484;BME280;36409;52.168;20.878;2023-03-19T11:46:30;100560.06;;;18.21;35.49
50484;BME280;36409;52.168;20.878;2023-03-19T11:52:13;100554.91;;;18.18;35.66
50484;BME280;36409;52.168;20.878;2023-03-19T11:55:00;100554.34;;;18.12;35.85
50484;BME280;36409;52.168;20.878;2023-03-19T11:57:45;100549.70;;;18.17;36.00
50484;BME280;36409;52.168;20.878;2023-03-19T12:00:27;100547.58;;;18.25;35.88
50484;BME280;36409;52.168;20.878;2023-03-19T12:06:10;100551.02;;;18.06;35.56
50484;BME280;36409;52.168;20.878;2023-03-19T12:08:48;100552.58;;;17.90;35.69
50484;BME280;36409;52.168;20.878;2023-03-19T12:11:25;100548.92;;;17.72;35.88
50484;BME280;36409;52.168;20.878;2023-03-19T12:17:02;100544.98;;;17.60;36.00
50484;BME280;36409;52.168;20.878;2023-03-19T12:19:49;100540.24;;;17.68;36.27
50484;BME280;36409;52.168;20.878;2023-03-19T12:22:35;100546.20;;;17.73;36.39
50484;BME280;36409;52.168;20.878;2023-03-19T12:25:19;100535.95;;;17.66;36.32
50484;BME280;36409;52.168;20.878;2023-03-19T12:27:54;100537.02;;;17.62;36.32
50484;BME280;36409;52.168;20.878;2023-03-19T12:30:33;100535.95;;;17.66;36.36
50484;BME280;36409;52.168;20.878;2023-03-19T12:33:20;100544.75;;;17.66;36.29
50484;BME280;36409;52.168;20.878;2023-03-19T12:35:55;100535.61;;;17.53;36.20
50484;BME280;36409;52.168;20.878;2023-03-19T12:38:32;100539.40;;;17.45;36.63
50484;BME280;36409;52.168;20.878;2023-03-19T12:41:06;100530.21;;;17.34;36.25
50484;BME280;36409;52.168;20.878;2023-03-19T12:43:48;100531.50;;;17.23;36.09
50484;BME280;36409;52.168;20.878;2023-03-19T12:46:24;100529.16;;;17.16;36.43
50484;BME280;36409;52.168;20.878;2023-03-19T12:48:57;100525.78;;;17.12;36.43
50484;BME280;36409;52.168;20.878;2023-03-19T12:51:33;100521.36;;;17.12;36.80
50484;BME280;36409;52.168;20.878;2023-03-19T12:54:06;100519.96;;;17.04;36.57
50484;BME280;36409;52.168;20.878;2023-03-19T12:56:42;100521.09;;;16.96;36.45
50484;BME280;36409;52.168;20.878;2023-03-19T12:59:15;100522.89;;;16.96;36.53
50484;BME280;36409;52.168;20.878;2023-03-19T13:01:49;100516.11;;;16.89;36.79
50484;BME280;36409;52.168;20.878;2023-03-19T13:04:23;100516.25;;;16.84;36.50
50484;BME280;36409;52.168;20.878;2023-03-19T13:06:55;100512.25;;;16.74;36.91
50484;BME280;36409;52.168;20.878;2023-03-19T13:09:32;100500.16;;;16.68;36.62
50484;BME280;36409;52.168;20.878;2023-03-19T13:12:09;100502.59;;;16.74;36.62
50484;BME280;36409;52.168;20.878;2023-03-19T13:14:48;100502.34;;;16.80;36.66
50484;BME280;36409;52.168;20.878;2023-03-19T13:17:24;100504.97;;;16.80;36.63
50484;BME280;36409;52.168;20.878;2023-03-19T13:19:58;100499.03;;;16.75;36.38
50484;BME280;36409;52.168;20.878;2023-03-19T13:22:32;100502.80;;;16.68;36.52
50484;BME280;36409;52.168;20.878;2023-03-19T13:25:05;100506.42;;;16.65;36.64
50484;BME280;36409;52.168;20.878;2023-03-19T13:27:35;100502.17;;;16.61;37.10
50484;BME280;36409;52.168;20.878;2023-03-19T13:30:16;100501.60;;;16.53;36.96
50484;BME280;36409;52.168;20.878;2023-03-19T13:32:48;100498.16;;;16.51;36.86
50484;BME280;36409;52.168;20.878;2023-03-19T13:35:35;100491.98;;;16.52;37.03